sensor_id;sensor_type;location;lat;lon;timestamp;P1;durP1;ratioP1;P2;durP2;ratioP2
55483;SDS011;41345;51.704;5.146;2023-03-26T00:02:23;56.75;;;40.08;;
55483;SDS011;41345;51.704;5.146;2023-03-26T00:07:23;44.47;;;39.17;;
55483;SDS011;41345;51.704;5.146;2023-03-26T00:12:24;53.00;;;39.22;;
55483;SDS011;41345;51.704;5.146;2023-03-26T00:17:24;53.90;;;40.50;;
55483;SDS011;41345;51.704;5.146;2023-03-26T00:22:24;56.78;;;40.17;;
55483;SDS011;41345;51.704;5.146;2023-03-26T00:27:25;56.50;;;40.33;;
55483;SDS011;41345;51.704;5.146;2023-03-26T00:32:27;53.63;;;39.78;;
55483;SDS011;41345;51.704;5.146;2023-03-26T00:37:27;49.42;;;40.45;;
55483;SDS011;41345;51.704;5.146;2023-03-26T00:42:28;52.17;;;39.67;;
55483;SDS011;41345;51.704;5.146;2023-03-26T00:47:28;52.22;;;39.42;;
55483;SDS011;41345;51.704;5.146;2023-03-26T00:52:28;56.33;;;41.30;;
55483;SDS011;41345;51.704;5.146;2023-03-26T00:57:29;48.85;;;42.63;;
55483;SDS011;41345;51.704;5.146;2023-03-26T01:02:29;51.30;;;41.05;;
55483;SDS011;41345;51.704;5.146;2023-03-26T01:07:31;58.45;;;41.78;;
55483;SDS011;41345;51.704;5.146;2023-03-26T01:12:34;62.45;;;41.88;;
55483;SDS011;41345;51.704;5.146;2023-03-26T01:17:34;54.83;;;42.22;;
55483;SDS011;41345;51.704;5.146;2023-03-26T01:22:36;53.50;;;41.65;;
55483;SDS011;41345;51.704;5.146;2023-03-26T01:27:39;60.03;;;43.40;;
55483;SDS011;41345;51.704;5.146;2023-03-26T01:32:44;62.97;;;42.70;;
55483;SDS011;41345;51.704;5.146;2023-03-26T01:42:59;51.75;;;42.40;;
55483;SDS011;41345;51.704;5.146;2023-03-26T01:48:02;46.78;;;41.78;;
55483;SDS011;41345;51.704;5.146;2023-03-26T01:53:03;46.70;;;41.88;;
55483;SDS011;41345;51.704;5.146;2023-03-26T02:08:27;55.42;;;42.55;;
55483;SDS011;41345;51.704;5.146;2023-03-26T02:13:34;62.25;;;44.35;;
55483;SDS011;41345;51.704;5.146;2023-03-26T02:18:34;48.00;;;42.25;;
55483;SDS011;41345;51.704;5.146;2023-03-26T02:23:41;53.65;;;42.88;;
55483;SDS011;41345;51.704;5.146;2023-03-26T02:28:45;56.70;;;42.05;;
55483;SDS011;41345;51.704;5.146;2023-03-26T02:33:45;53.53;;;43.05;;
55483;SDS011;41345;51.704;5.146;2023-03-26T02:38:46;49.88;;;41.45;;
55483;SDS011;41345;51.704;5.146;2023-03-26T02:43:46;54.40;;;42.07;;
55483;SDS011;41345;51.704;5.146;2023-03-26T02:48:47;64.18;;;42.30;;
55483;SDS011;41345;51.704;5.146;2023-03-26T02:53:47;46.60;;;41.22;;
55483;SDS011;41345;51.704;5.146;2023-03-26T02:58:47;56.25;;;42.55;;
55483;SDS011;41345;51.704;5.146;2023-03-26T03:03:48;49.08;;;42.50;;
55483;SDS011;41345;51.704;5.146;2023-03-26T03:08:48;53.75;;;41.40;;
55483;SDS011;41345;51.704;5.146;2023-03-26T03:13:49;57.35;;;40.65;;
55483;SDS011;41345;51.704;5.146;2023-03-26T03:18:49;46.33;;;41.60;;
55483;SDS011;41345;51.704;5.146;2023-03-26T03:23:56;52.83;;;40.65;;
55483;SDS011;41345;51.704;5.146;2023-03-26T03:28:56;53.45;;;43.20;;
55483;SDS011;41345;51.704;5.146;2023-03-26T03:33:57;44.55;;;40.40;;
55483;SDS011;41345;51.704;5.146;2023-03-26T03:38:57;45.80;;;41.20;;
55483;SDS011;41345;51.704;5.146;2023-03-26T03:44:01;48.93;;;40.70;;
55483;SDS011;41345;51.704;5.146;2023-03-26T03:49:01;44.55;;;40.30;;
55483;SDS011;41345;51.704;5.146;2023-03-26T03:54:01;46.88;;;41.97;;
55483;SDS011;41345;51.704;5.146;2023-03-26T03:59:02;50.08;;;40.25;;
55483;SDS011;41345;51.704;5.146;2023-03-26T04:04:03;46.40;;;41.47;;
55483;SDS011;41345;51.704;5.146;2023-03-26T04:09:03;47.58;;;42.08;;
55483;SDS011;41345;51.704;5.146;2023-03-26T04:14:03;47.00;;;41.73;;
55483;SDS011;41345;51.704;5.146;2023-03-26T04:19:04;46.63;;;42.17;;
55483;SDS011;41345;51.704;5.146;2023-03-26T04:24:04;46.33;;;41.67;;
55483;SDS011;41345;51.704;5.146;2023-03-26T04:29:06;44.33;;;40.00;;
55483;SDS011;41345;51.704;5.146;2023-03-26T04:34:16;51.10;;;47.25;;
55483;SDS011;41345;51.704;5.146;2023-03-26T04:39:19;50.15;;;45.15;;
55483;SDS011;41345;51.704;5.146;2023-03-26T04:44:20;51.42;;;44.45;;
55483;SDS011;41345;51.704;5.146;2023-03-26T04:49:24;45.42;;;41.55;;
55483;SDS011;41345;51.704;5.146;2023-03-26T04:54:24;47.77;;;44.07;;
55483;SDS011;41345;51.704;5.146;2023-03-26T04:59:28;46.90;;;43.03;;
55483;SDS011;41345;51.704;5.146;2023-03-26T05:04:33;46.80;;;42.33;;
55483;SDS011;41345;51.704;5.146;2023-03-26T05:09:35;45.13;;;40.90;;
55483;SDS011;41345;51.704;5.146;2023-03-26T05:14:37;44.78;;;40.65;;
55483;SDS011;41345;51.704;5.146;2023-03-26T05:19:37;44.97;;;40.58;;
55483;SDS011;41345;51.704;5.146;2023-03-26T05:24:38;50.55;;;45.22;;
55483;SDS011;41345;51.704;5.146;2023-03-26T05:29:39;45.95;;;41.65;;
55483;SDS011;41345;51.704;5.146;2023-03-26T05:34:40;45.15;;;40.78;;
55483;SDS011;41345;51.704;5.146;2023-03-26T05:39:40;44.03;;;39.33;;
55483;SDS011;41345;51.704;5.146;2023-03-26T05:44:42;43.83;;;40.15;;
55483;SDS011;41345;51.704;5.146;2023-03-26T05:49:43;44.58;;;39.97;;
55483;SDS011;41345;51.704;5.146;2023-03-26T05:54:43;42.53;;;37.90;;
55483;SDS011;41345;51.704;5.146;2023-03-26T05:59:43;45.57;;;40.87;;
55483;SDS011;41345;51.704;5.146;2023-03-26T06:04:44;43.67;;;38.90;;
55483;SDS011;41345;51.704;5.146;2023-03-26T06:09:44;44.33;;;38.85;;
55483;SDS011;41345;51.704;5.146;2023-03-26T06:14:45;43.58;;;39.28;;
55483;SDS011;41345;51.704;5.146;2023-03-26T06:19:46;38.53;;;34.72;;
55483;SDS011;41345;51.704;5.146;2023-03-26T06:24:46;49.80;;;38.75;;
55483;SDS011;41345;51.704;5.146;2023-03-26T06:29:47;40.67;;;35.58;;
55483;SDS011;41345;51.704;5.146;2023-03-26T06:34:47;41.53;;;37.50;;
55483;SDS011;41345;51.704;5.146;2023-03-26T06:39:47;50.88;;;37.63;;
55483;SDS011;41345;51.704;5.146;2023-03-26T06:44:48;48.33;;;37.83;;
55483;SDS011;41345;51.704;5.146;2023-03-26T06:49:48;40.70;;;35.90;;
55483;SDS011;41345;51.704;5.146;2023-03-26T06:54:48;46.03;;;41.08;;
55483;SDS011;41345;51.704;5.146;2023-03-26T06:59:48;45.10;;;37.78;;
55483;SDS011;41345;51.704;5.146;2023-03-26T07:04:49;40.53;;;36.38;;
55483;SDS011;41345;51.704;5.146;2023-03-26T07:09:50;41.15;;;36.83;;
55483;SDS011;41345;51.704;5.146;2023-03-26T07:14:50;40.17;;;36.15;;
55483;SDS011;41345;51.704;5.146;2023-03-26T07:19:50;45.90;;;35.97;;
55483;SDS011;41345;51.704;5.146;2023-03-26T07:24:52;43.38;;;36.53;;
55483;SDS011;41345;51.704;5.146;2023-03-26T07:45:21;40.78;;;36.00;;
55483;SDS011;41345;51.704;5.146;2023-03-26T07:50:25;38.60;;;34.75;;
55483;SDS011;41345;51.704;5.146;2023-03-26T07:55:25;37.40;;;34.00;;
55483;SDS011;41345;51.704;5.146;2023-03-26T08:00:29;38.88;;;35.08;;
55483;SDS011;41345;51.704;5.146;2023-03-26T08:05:31;39.92;;;36.15;;
55483;SDS011;41345;51.704;5.146;2023-03-26T08:10:45;40.53;;;36.20;;
55483;SDS011;41345;51.704;5.146;2023-03-26T08:21:01;40.70;;;36.55;;
55483;SDS011;41345;51.704;5.146;2023-03-26T08:26:16;40.63;;;36.53;;
55483;SDS011;41345;51.704;5.146;2023-03-26T08:31:18;39.67;;;35.80;;
55483;SDS011;41345;51.704;5.146;2023-03-26T08:36:23;38.33;;;34.63;;
55483;SDS011;41345;51.704;5.146;2023-03-26T09:13:02;39.13;;;35.20;;
55483;SDS011;41345;51.704;5.146;2023-03-26T09:33:30;36.00;;;32.93;;
55483;SDS011;41345;51.704;5.146;2023-03-26T10:40:30;31.80;;;29.55;;
55483;SDS011;41345;51.704;5.146;2023-03-26T10:45:37;31.80;;;29.55;;
55483;SDS011;41345;51.704;5.146;2023-03-26T11:01:26;29.75;;;27.85;;
55483;SDS011;41345;51.704;5.146;2023-03-26T11:06:32;30.00;;;27.88;;
55483;SDS011;41345;51.704;5.146;2023-03-26T11:32:21;33.60;;;31.45;;
55483;SDS011;41345;51.704;5.146;2023-03-26T11:37:33;31.20;;;29.30;;
55483;SDS011;41345;51.704;5.146;2023-03-26T11:42:36;33.45;;;31.13;;
55483;SDS011;41345;51.704;5.146;2023-03-26T11:47:44;34.30;;;32.03;;
55483;SDS011;41345;51.704;5.146;2023-03-26T11:52:46;31.58;;;29.35;;
55483;SDS011;41345;51.704;5.146;2023-03-26T11:57:49;31.02;;;29.23;;
55483;SDS011;41345;51.704;5.146;2023-03-26T12:02:54;35.45;;;33.25;;
55483;SDS011;41345;51.704;5.146;2023-03-26T12:12:57;30.48;;;28.48;;
55483;SDS011;41345;51.704;5.146;2023-03-26T12:17:58;33.33;;;31.33;;
55483;SDS011;41345;51.704;5.146;2023-03-26T12:28:35;30.70;;;28.90;;
55483;SDS011;41345;51.704;5.146;2023-03-26T12:33:36;31.90;;;29.90;;
55483;SDS011;41345;51.704;5.146;2023-03-26T12:38:37;29.75;;;27.67;;
55483;SDS011;41345;51.704;5.146;2023-03-26T12:43:40;35.75;;;33.55;;
55483;SDS011;41345;51.704;5.146;2023-03-26T12:48:41;36.80;;;34.20;;
55483;SDS011;41345;51.704;5.146;2023-03-26T12:53:50;36.75;;;34.25;;
55483;SDS011;41345;51.704;5.146;2023-03-26T12:59:00;37.28;;;34.92;;
55483;SDS011;41345;51.704;5.146;2023-03-26T13:09:33;39.50;;;36.70;;
55483;SDS011;41345;51.704;5.146;2023-03-26T13:24:58;41.03;;;37.30;;
55483;SDS011;41345;51.704;5.146;2023-03-26T13:30:12;40.07;;;36.63;;
55483;SDS011;41345;51.704;5.146;2023-03-26T13:35:35;41.60;;;37.95;;
55483;SDS011;41345;51.704;5.146;2023-03-26T13:45:45;36.38;;;33.42;;
55483;SDS011;41345;51.704;5.146;2023-03-26T13:55:47;36.25;;;33.25;;
55483;SDS011;41345;51.704;5.146;2023-03-26T14:06:08;38.40;;;34.85;;
55483;SDS011;41345;51.704;5.146;2023-03-26T14:11:11;40.70;;;36.47;;
55483;SDS011;41345;51.704;5.146;2023-03-26T14:26:21;36.95;;;33.45;;
55483;SDS011;41345;51.704;5.146;2023-03-26T14:36:58;36.60;;;32.97;;
55483;SDS011;41345;51.704;5.146;2023-03-26T14:42:06;30.58;;;27.42;;
55483;SDS011;41345;51.704;5.146;2023-03-26T14:47:19;26.67;;;23.10;;
55483;SDS011;41345;51.704;5.146;2023-03-26T15:03:00;25.83;;;18.88;;
55483;SDS011;41345;51.704;5.146;2023-03-26T15:23:53;14.73;;;12.57;;
55483;SDS011;41345;51.704;5.146;2023-03-26T15:49:39;15.88;;;12.30;;
55483;SDS011;41345;51.704;5.146;2023-03-26T15:55:01;14.98;;;8.93;;
55483;SDS011;41345;51.704;5.146;2023-03-26T16:00:40;12.00;;;6.30;;
55483;SDS011;41345;51.704;5.146;2023-03-26T16:10:54;16.52;;;5.65;;
55483;SDS011;41345;51.704;5.146;2023-03-26T16:15:55;16.70;;;5.53;;
55483;SDS011;41345;51.704;5.146;2023-03-26T16:26:17;14.07;;;4.28;;
55483;SDS011;41345;51.704;5.146;2023-03-26T16:31:21;17.25;;;5.00;;
55483;SDS011;41345;51.704;5.146;2023-03-26T16:41:25;15.52;;;4.72;;
55483;SDS011;41345;51.704;5.146;2023-03-26T16:46:36;11.85;;;4.07;;
55483;SDS011;41345;51.704;5.146;2023-03-26T17:02:45;8.32;;;3.28;;
55483;SDS011;41345;51.704;5.146;2023-03-26T17:07:44;13.73;;;3.83;;
55483;SDS011;41345;51.704;5.146;2023-03-26T17:43:35;14.33;;;2.20;;
55483;SDS011;41345;51.704;5.146;2023-03-26T17:48:36;10.93;;;3.00;;
55483;SDS011;41345;51.704;5.146;2023-03-26T17:53:37;8.68;;;2.35;;
55483;SDS011;41345;51.704;5.146;2023-03-26T17:58:40;10.85;;;2.45;;
55483;SDS011;41345;51.704;5.146;2023-03-26T18:03:43;11.52;;;1.80;;
55483;SDS011;41345;51.704;5.146;2023-03-26T18:23:56;17.05;;;2.97;;
55483;SDS011;41345;51.704;5.146;2023-03-26T18:29:16;11.55;;;2.00;;
55483;SDS011;41345;51.704;5.146;2023-03-26T18:34:18;8.05;;;2.22;;
55483;SDS011;41345;51.704;5.146;2023-03-26T18:39:19;10.23;;;2.13;;
55483;SDS011;41345;51.704;5.146;2023-03-26T18:44:19;11.30;;;2.45;;
55483;SDS011;41345;51.704;5.146;2023-03-26T18:49:20;9.50;;;3.47;;
55483;SDS011;41345;51.704;5.146;2023-03-26T18:54:21;10.25;;;3.10;;
55483;SDS011;41345;51.704;5.146;2023-03-26T18:59:26;5.10;;;1.85;;
55483;SDS011;41345;51.704;5.146;2023-03-26T19:09:27;6.50;;;1.37;;
55483;SDS011;41345;51.704;5.146;2023-03-26T19:14:28;10.85;;;1.83;;
55483;SDS011;41345;51.704;5.146;2023-03-26T19:19:37;11.98;;;2.42;;
55483;SDS011;41345;51.704;5.146;2023-03-26T19:24:38;8.65;;;1.40;;
55483;SDS011;41345;51.704;5.146;2023-03-26T19:29:39;13.00;;;1.60;;
55483;SDS011;41345;51.704;5.146;2023-03-26T19:34:42;10.20;;;1.83;;
55483;SDS011;41345;51.704;5.146;2023-03-26T19:39:43;9.57;;;1.58;;
55483;SDS011;41345;51.704;5.146;2023-03-26T19:44:44;13.05;;;2.25;;
55483;SDS011;41345;51.704;5.146;2023-03-26T19:49:54;13.57;;;2.30;;
55483;SDS011;41345;51.704;5.146;2023-03-26T20:05:00;7.88;;;2.00;;
55483;SDS011;41345;51.704;5.146;2023-03-26T20:10:00;11.43;;;2.70;;
55483;SDS011;41345;51.704;5.146;2023-03-26T20:15:00;10.10;;;2.08;;
55483;SDS011;41345;51.704;5.146;2023-03-26T20:20:01;10.73;;;2.10;;
55483;SDS011;41345;51.704;5.146;2023-03-26T20:25:17;8.80;;;2.00;;
55483;SDS011;41345;51.704;5.146;2023-03-26T20:30:18;12.30;;;2.53;;
55483;SDS011;41345;51.704;5.146;2023-03-26T20:35:20;11.93;;;2.03;;
55483;SDS011;41345;51.704;5.146;2023-03-26T20:40:20;9.02;;;2.20;;
55483;SDS011;41345;51.704;5.146;2023-03-26T20:45:21;10.98;;;1.73;;
55483;SDS011;41345;51.704;5.146;2023-03-26T20:50:22;11.35;;;2.03;;
55483;SDS011;41345;51.704;5.146;2023-03-26T20:55:23;13.27;;;2.00;;
55483;SDS011;41345;51.704;5.146;2023-03-26T21:00:24;6.85;;;2.50;;
55483;SDS011;41345;51.704;5.146;2023-03-26T21:05:25;8.88;;;2.00;;
55483;SDS011;41345;51.704;5.146;2023-03-26T21:10:26;9.85;;;2.70;;
55483;SDS011;41345;51.704;5.146;2023-03-26T21:15:28;11.23;;;3.08;;
55483;SDS011;41345;51.704;5.146;2023-03-26T21:20:29;10.40;;;3.00;;
55483;SDS011;41345;51.704;5.146;2023-03-26T21:30:32;13.27;;;3.10;;
55483;SDS011;41345;51.704;5.146;2023-03-26T21:35:33;12.43;;;3.10;;
55483;SDS011;41345;51.704;5.146;2023-03-26T21:40:34;10.05;;;2.97;;
55483;SDS011;41345;51.704;5.146;2023-03-26T21:45:34;14.55;;;3.97;;
55483;SDS011;41345;51.704;5.146;2023-03-26T21:50:35;9.60;;;3.55;;
55483;SDS011;41345;51.704;5.146;2023-03-26T21:55:42;9.50;;;3.28;;
55483;SDS011;41345;51.704;5.146;2023-03-26T22:06:02;10.52;;;3.85;;
55483;SDS011;41345;51.704;5.146;2023-03-26T22:11:05;8.18;;;3.55;;
55483;SDS011;41345;51.704;5.146;2023-03-26T22:16:06;9.93;;;5.18;;
55483;SDS011;41345;51.704;5.146;2023-03-26T22:21:07;12.18;;;6.70;;
55483;SDS011;41345;51.704;5.146;2023-03-26T22:26:07;12.67;;;5.60;;
55483;SDS011;41345;51.704;5.146;2023-03-26T22:31:08;15.45;;;6.38;;
55483;SDS011;41345;51.704;5.146;2023-03-26T22:36:09;13.65;;;6.68;;
55483;SDS011;41345;51.704;5.146;2023-03-26T22:41:10;15.63;;;7.40;;
55483;SDS011;41345;51.704;5.146;2023-03-26T22:46:10;13.00;;;9.02;;
55483;SDS011;41345;51.704;5.146;2023-03-26T22:51:11;12.02;;;9.38;;
55483;SDS011;41345;51.704;5.146;2023-03-26T22:56:12;16.45;;;14.93;;
55483;SDS011;41345;51.704;5.146;2023-03-26T23:01:14;26.83;;;24.83;;
55483;SDS011;41345;51.704;5.146;2023-03-26T23:06:16;26.30;;;24.08;;
55483;SDS011;41345;51.704;5.146;2023-03-26T23:11:17;23.25;;;21.27;;
55483;SDS011;41345;51.704;5.146;2023-03-26T23:16:18;20.10;;;18.58;;
55483;SDS011;41345;51.704;5.146;2023-03-26T23:21:20;15.57;;;14.25;;
55483;SDS011;41345;51.704;5.146;2023-03-26T23:26:20;20.05;;;18.33;;
55483;SDS011;41345;51.704;5.146;2023-03-26T23:31:21;21.30;;;19.80;;
55483;SDS011;41345;51.704;5.146;2023-03-26T23:36:24;21.15;;;19.45;;
55483;SDS011;41345;51.704;5.146;2023-03-26T23:41:24;19.65;;;17.70;;
55483;SDS011;41345;51.704;5.146;2023-03-26T23:46:26;20.10;;;18.75;;
55483;SDS011;41345;51.704;5.146;2023-03-26T23:51:33;20.60;;;19.05;;
55483;SDS011;41345;51.704;5.146;2023-03-26T23:56:35;22.30;;;20.20;;
